Terminal Aerodrome Forecast
Issued by NWS Hastings, NE

Home | Current Version | Previous Version | Text Only | Print | Product List | Glossary On
Versions: 1 2 3 4 5 6 7 8 9 10 11 12 13 14 15 16 17 18 19 20 21 22 23 24 25 26 27 28
000
FTUS45 KGID 231722
TAFEAR
TAF
KEAR 231722Z 2318/2418 09015KT P6SM VCSH OVC025
     FM232100 08012KT 6SM -SHRA BR OVC009
     FM240200 03008KT 2SM SHRA BR OVC006
     FM240800 32008KT P6SM BKN006
     FM241700 35010KT P6SM OVC012=

USA.gov is the U.S. government's official web portal to all federal, state and local government web resources and services.